Deltaville, VA (23043)

8:02 PM EST on December 10, 2016 (GMT -0500)
Delta Shores | | Change Station

Elev 26 ft 37.56 °N, 76.35 °W | Updated 35 seconds ago

Clear
Clear
27.1 °F
Feels Like 27 °F
N
0.0
Wind Variable Wind from SW

Today
High -- | Low -- °F
--% Chance of Precip.
Yesterday
High -- | Low -- °F
Precip. -- in
Pressure 30.54 in
Visibility 10.0 miles
Clouds Clear
Windchill 27 °F
Dew Point 19 °F
Humidity 71%
Rainfall 0.00 in
Snow Depth Not available.
7:09 AM 4:47 PM
Waxing Gibbous, 87% visible
METAR KFYJ 110055Z AUTO 00000KT 10SM CLR M04/M08 A3054 RMK AO2 T10401078
Pressure 30.54 in
Visibility 10.0 miles
Clouds Clear
Windchill 27 °F
Dew Point 19 °F
Humidity 71%
Rainfall 0.00 in
Snow Depth Not available.
7:09 AM 4:47 PM
Waxing Gibbous, 87% visible
METAR KFYJ 110055Z AUTO 00000KT 10SM CLR M04/M08 A3054 RMK AO2 T10401078

10-Day Weather Forecast

Almanac

Astronomy

Dec. 10, 2016 Rise Set
Actual Time
Civil Twilight
Nautical Twilight
Astronomical Twilight
Moon
Length of Visible Light
Length of Day
Tomorrow will be .
, % of the Moon is Illuminated

Today's Extremes

State Highs State Lows

Community

WunderPhotos

Upload Photos

1,956,685 photos uploaded!

WunderBlog® & News

Nearby

Air Quality

  Air Quality AQ Index Pollutant
Not available.

Snow Depth

Station Depth Elevation

Earthquake Activity

City Distance Mag. Time & Date
Minimum magnitude displayed is 2.5.

Coastal Water Temperatures

Place Temperature

Stations

Nearby Weather Stations

Station Location Temp. Windchill Dew Point Humidity Wind Precip. Elev Updated Type
                   

Watches & Warnings

There are currently no watches in effect.